Time;durP1;ratioP1;P1;durP2;ratioP2;P2;SDS_P1;SDS_P2;PMS_P1;PMS_P2;Temp;Humidity;BMP_temperature;BMP_pressure;BME280_temperature;BME280_humidity;BME280_pressure;Samples;Min_cycle;Max_cycle;Signal;HPM_P1;HPM_P2
2022/06/14 03:52:02;;;;;;;14.15;10.08;;;;;;;11.82;100.00;99419.92;4552752;75;21220;-87
2022/06/14 03:58:34;;;;;;;16.40;10.88;;;;;;;11.88;100.00;99429.98;4412487;78;21141;-86
2022/06/14 04:05:13;;;;;;;13.40;9.75;;;;;;;11.90;100.00;99440.00;4414375;78;21405;-86
2022/06/14 04:25:38;;;;;;;16.73;10.38;;;;;;;12.00;100.00;99453.05;4307718;80;21188;-86
2022/06/14 04:53:04;;;;;;;18.42;11.10;;;;;;;12.19;100.00;99459.76;3620981;92;21594;-87
2022/06/14 05:13:18;;;;;;;14.58;11.25;;;;;;;12.68;100.00;99463.63;3958955;89;21637;-86
2022/06/14 05:19:51;;;;;;;14.75;11.83;;;;;;;12.90;100.00;99465.42;3978202;89;21181;-86
2022/06/14 05:40:32;;;;;;;20.35;10.82;;;;;;;13.24;100.00;99484.78;4079369;87;21086;-85
2022/06/14 05:54:33;;;;;;;13.98;9.75;;;;;;;13.48;100.00;99480.88;4201064;83;21624;-86
2022/06/14 06:08:03;;;;;;;20.68;9.30;;;;;;;13.83;100.00;99481.66;4017693;86;21130;-86
2022/06/14 06:15:17;;;;;;;16.10;8.68;;;;;;;13.73;100.00;99483.17;4035145;86;21079;-85
2022/06/14 06:28:37;;;;;;;24.45;8.68;;;;;;;13.90;100.00;99488.02;4127017;84;21066;-86
2022/06/14 06:34:51;;;;;;;17.35;9.10;;;;;;;14.08;100.00;99492.21;4155026;82;21015;-86
2022/06/14 06:47:56;;;;;;;14.23;7.75;;;;;;;14.31;100.00;99507.91;4294359;81;21058;-84
2022/06/14 06:54:06;;;;;;;14.63;5.87;;;;;;;14.59;99.98;99511.34;4291109;81;21534;-84
2022/06/14 07:00:22;;;;;;;17.75;6.80;;;;;;;14.80;98.91;99508.05;4263874;82;21131;-84
2022/06/14 07:21:22;;;;;;;9.43;4.80;;;;;;;16.62;98.98;99511.81;4022802;87;21094;-86
2022/06/14 07:34:40;;;;;;;8.00;3.80;;;;;;;17.15;94.81;99513.07;4004037;85;21146;-84
2022/06/14 07:41:14;;;;;;;6.15;3.00;;;;;;;17.45;93.97;99511.09;4132858;83;21651;-85
2022/06/14 07:48:14;;;;;;;7.80;3.25;;;;;;;17.80;93.06;99508.02;4184161;83;31288;-84
2022/06/14 07:54:36;;;;;;;6.17;3.15;;;;;;;18.09;91.44;99510.66;4226095;82;21039;-84
2022/06/14 08:01:08;;;;;;;4.72;2.90;;;;;;;17.80;89.98;99508.02;4289973;80;21082;-84
2022/06/14 08:07:57;;;;;;;5.45;2.25;;;;;;;17.83;89.28;99511.34;4274539;80;21210;-84
2022/06/14 08:14:27;;;;;;;3.98;2.60;;;;;;;17.74;89.29;99508.27;4134977;84;21102;-84
2022/06/14 08:27:39;;;;;;;7.87;2.42;;;;;;;17.72;86.03;99514.81;3761686;88;22060;-84
2022/06/14 08:34:25;;;;;;;7.77;2.93;;;;;;;17.98;85.20;99507.22;4001424;88;21063;-85
2022/06/14 08:41:12;;;;;;;5.03;2.20;;;;;;;18.00;83.84;99513.73;3913962;88;22072;-86
2022/06/14 09:16:46;;;;;;;3.92;1.90;;;;;;;18.61;78.53;99473.23;4001649;88;20977;-86
2022/06/14 09:23:49;;;;;;;6.17;1.70;;;;;;;18.69;76.31;99469.17;4033538;86;21080;-85
2022/06/14 09:30:59;;;;;;;5.83;1.60;;;;;;;18.79;75.99;99466.06;4074428;85;21015;-86
2022/06/14 10:04:56;;;;;;;2.33;1.70;;;;;;;18.34;73.68;99475.73;3960703;88;21063;-85
2022/06/14 10:11:34;;;;;;;5.12;1.40;;;;;;;18.17;72.75;99479.50;4066183;84;20991;-86
2022/06/14 10:39:24;;;;;;;5.10;1.55;;;;;;;17.96;70.54;99482.53;3978081;86;21075;-86
2022/06/14 10:45:43;;;;;;;3.63;1.03;;;;;;;17.98;70.35;99489.22;4029689;86;21087;-86
2022/06/14 11:06:07;;;;;;;2.08;1.10;;;;;;;18.64;69.68;99487.65;4058094;86;21016;-86
2022/06/14 11:26:29;;;;;;;;;;;;;;;21.01;67.03;99474.61;4217545;83;21066;-86
2022/06/14 11:32:57;;;;;;;5.55;1.10;;;;;;;21.71;63.99;99474.25;3878675;90;20190;-86
2022/06/14 11:46:59;;;;;;;4.12;1.10;;;;;;;22.45;63.75;99469.42;4035134;87;21097;-86
2022/06/14 12:07:17;;;;;;;4.65;1.00;;;;;;;21.81;61.90;99459.10;4094295;86;21102;-84
2022/06/14 12:13:44;;;;;;;4.28;1.20;;;;;;;20.97;60.79;99456.44;4104377;86;21125;-86
2022/06/14 12:20:28;;;;;;;4.62;1.20;;;;;;;20.50;60.31;99461.41;4075188;86;21627;-86
2022/06/14 12:27:13;;;;;;;2.60;1.12;;;;;;;20.40;60.12;99464.42;4108322;85;21076;-87
2022/06/14 12:40:06;;;;;;;2.42;1.25;;;;;;;19.97;59.04;99461.69;3989014;86;21087;-85
2022/06/14 12:46:27;;;;;;;3.58;1.27;;;;;;;19.55;58.89;99465.25;4053182;86;21046;-86
2022/06/14 12:52:40;;;;;;;4.53;1.30;;;;;;;19.13;58.71;99463.95;3968689;86;21084;-85
2022/06/14 12:58:59;;;;;;;2.55;0.88;;;;;;;18.78;58.71;99467.25;4057791;86;21031;-85
2022/06/14 13:05:50;;;;;;;4.10;0.90;;;;;;;18.85;59.22;99457.45;4086261;86;21564;-86
2022/06/14 13:12:32;;;;;;;2.67;1.00;;;;;;;19.25;58.52;99455.61;4067470;86;21046;-85
2022/06/14 13:18:55;;;;;;;5.15;1.40;;;;;;;19.20;58.39;99449.18;4052459;86;21079;-86
2022/06/14 13:25:35;;;;;;;3.50;0.95;;;;;;;19.32;58.23;99443.84;4074568;86;21631;-84
2022/06/14 13:32:26;;;;;;;4.47;1.82;;;;;;;19.34;57.54;99433.70;4076447;86;21154;-86
2022/06/14 13:45:45;;;;;;;;;;;;;;;19.12;57.11;99434.61;4049703;87;21015;-85
2022/06/14 13:52:22;;;;;;;6.50;1.00;;;;;;;18.87;58.50;99433.45;4042115;86;20160;-85
2022/06/14 14:05:42;;;;;;;4.00;1.22;;;;;;;18.98;57.33;99434.08;3966727;88;21623;-85
2022/06/14 14:12:21;;;;;;;4.30;1.30;;;;;;;18.94;57.59;99425.00;3970934;89;21005;-86
2022/06/14 14:25:56;;;;;;;3.90;0.90;;;;;;;19.35;57.80;99410.28;3964588;88;21924;-86
2022/06/14 14:32:35;;;;;;;4.22;0.90;;;;;;;19.11;56.73;99400.34;3912269;88;21027;-85
2022/06/14 14:39:14;;;;;;;3.60;1.00;;;;;;;19.19;56.57;99401.80;3988966;87;21199;-86
2022/06/14 14:45:37;;;;;;;4.10;1.12;;;;;;;19.39;55.79;99401.27;3939122;88;21072;-85
2022/06/14 14:52:22;;;;;;;3.20;1.27;;;;;;;19.53;56.03;99392.71;4122033;84;21049;-87
2022/06/14 14:58:46;;;;;;;2.70;0.90;;;;;;;19.36;56.14;99394.59;4168998;84;21550;-87
2022/06/14 15:05:43;;;;;;;2.02;0.90;;;;;;;19.20;55.36;99397.21;4152620;84;21537;-85
2022/06/14 15:26:36;;;;;;;4.37;1.02;;;;;;;19.37;54.53;99387.81;3778009;91;21057;-85
2022/06/14 15:33:20;;;;;;;2.90;1.10;;;;;;;19.45;54.32;99379.55;3847626;89;22378;-86
2022/06/14 15:39:41;;;;;;;2.63;1.10;;;;;;;19.27;54.70;99387.98;3908692;85;21566;-86
2022/06/14 15:45:58;;;;;;;3.25;0.70;;;;;;;19.27;54.84;99383.23;4157597;84;21406;-85
2022/06/14 15:58:57;;;;;;;2.80;0.80;;;;;;;19.47;53.81;99377.13;4165204;83;21567;-86
2022/06/14 16:18:46;;;;;;;2.90;1.07;;;;;;;19.49;52.87;99373.93;4164793;83;21052;-85
2022/06/14 16:32:34;;;;;;;2.65;1.12;;;;;;;19.46;52.46;99374.19;4025862;86;21097;-86
2022/06/14 16:39:12;;;;;;;1.95;1.10;;;;;;;19.25;51.89;99377.30;4021435;86;21644;-87
2022/06/14 16:46:15;;;;;;;2.90;0.90;;;;;;;19.02;52.25;99380.09;4035541;86;21184;-86
2022/06/14 16:52:43;;;;;;;3.05;1.20;;;;;;;18.85;52.21;99383.95;4015375;86;21153;-86
2022/06/14 16:59:32;;;;;;;2.72;0.90;;;;;;;18.70;51.95;99381.19;4054134;84;21105;-88
2022/06/14 17:06:20;;;;;;;4.47;0.88;;;;;;;18.64;51.42;99382.28;4150789;84;21013;-85
2022/06/14 17:12:59;;;;;;;4.95;1.10;;;;;;;18.59;51.56;99381.36;4142413;82;21013;-86
2022/06/14 17:32:35;;;;;;;4.40;1.43;;;;;;;18.14;51.71;99391.67;3981727;88;21686;-86
2022/06/14 17:39:10;;;;;;;3.37;1.02;;;;;;;18.03;51.69;99392.41;3983115;88;21139;-86
2022/06/14 17:45:19;;;;;;;4.35;1.25;;;;;;;17.94;52.24;99399.84;4071460;84;21002;-85
2022/06/14 17:52:14;;;;;;;4.70;1.30;;;;;;;17.81;52.67;99398.81;4090449;86;21935;-85
2022/06/14 17:58:34;;;;;;;6.12;1.50;;;;;;;17.68;53.76;99401.15;4167841;84;21059;-85
2022/06/14 18:05:01;;;;;;;2.90;1.40;;;;;;;17.52;53.98;99395.38;4170238;84;21005;-85
2022/06/14 18:11:27;;;;;;;5.92;1.00;;;;;;;17.39;53.69;99397.05;4162715;84;21588;-86
2022/06/14 18:17:42;;;;;;;3.27;1.10;;;;;;;17.24;54.76;99401.96;4219905;84;21012;-85
2022/06/14 18:24:04;;;;;;;3.20;1.57;;;;;;;16.90;54.39;99402.42;4102611;84;21019;-85
2022/06/14 18:30:24;;;;;;;4.35;1.40;;;;;;;16.79;54.52;99409.42;4216631;84;21461;-85
2022/06/14 18:37:09;;;;;;;5.45;1.42;;;;;;;16.70;54.57;99415.22;4163429;84;20960;-85
2022/06/14 18:43:36;;;;;;;5.78;2.65;;;;;;;16.51;54.84;99410.20;4040268;85;21058;-85
2022/06/14 18:50:01;;;;;;;4.22;1.95;;;;;;;16.33;55.46;99420.55;4055101;85;21091;-84
2022/06/14 18:56:16;;;;;;;7.95;2.00;;;;;;;16.14;56.39;99433.47;4053369;86;21035;-85
2022/06/14 19:02:37;;;;;;;4.83;1.80;;;;;;;15.78;56.52;99440.30;4064181;86;21027;-85
2022/06/14 19:09:11;;;;;;;5.97;1.90;;;;;;;15.54;57.06;99437.78;4062778;86;21060;-86
2022/06/14 19:16:08;;;;;;;7.62;1.90;;;;;;;15.32;57.58;99448.61;4010011;86;21020;-85
2022/06/14 19:22:31;;;;;;;7.58;2.00;;;;;;;15.01;58.47;99459.06;4068192;86;21019;-85
2022/06/14 19:36:01;;;;;;;6.70;2.92;;;;;;;14.57;60.12;99468.23;4160394;84;20988;-85
2022/06/14 19:42:19;;;;;;;5.05;2.70;;;;;;;14.33;61.21;99472.48;4158289;84;21092;-84
2022/06/14 19:55:34;;;;;;;7.17;2.75;;;;;;;13.94;63.01;99478.38;4026202;88;21071;-85
2022/06/14 20:01:50;;;;;;;7.15;2.95;;;;;;;13.81;63.84;99478.52;4128727;85;21013;-84
2022/06/14 20:08:06;;;;;;;13.40;4.30;;;;;;;13.83;64.74;99485.21;4060471;86;20988;-85
2022/06/14 20:14:16;;;;;;;9.78;4.28;;;;;;;13.70;64.77;99488.67;4089195;87;20995;-84
2022/06/14 20:27:18;;;;;;;8.93;4.67;;;;;;;13.54;66.23;99493.09;4098078;86;20988;-84
2022/06/14 20:33:23;;;;;;;10.55;5.55;;;;;;;13.45;66.84;99501.47;4087323;86;21035;-84
2022/06/14 20:39:30;;;;;;;11.53;5.05;;;;;;;13.40;67.62;99497.69;4097767;87;21020;-84
2022/06/14 20:45:40;;;;;;;;;;;;;;;13.36;68.83;99505.91;4100733;86;21046;-85
2022/06/14 20:51:51;;;;;;;12.85;5.92;;;;;;;13.29;71.69;99506.44;4085452;85;20116;-85
2022/06/14 20:57:56;;;;;;;10.05;6.30;;;;;;;13.18;70.15;99508.30;4088113;86;21056;-84
2022/06/14 21:03:58;;;;;;;12.18;6.22;;;;;;;13.13;70.74;99512.77;4085009;85;21052;-84
2022/06/14 21:17:25;;;;;;;17.37;7.53;;;;;;;13.03;71.28;99510.12;4095578;85;21040;-85
2022/06/14 21:23:50;;;;;;;12.97;7.00;;;;;;;13.03;72.06;99522.49;3957985;86;21053;-85
2022/06/14 21:29:57;;;;;;;15.58;6.30;;;;;;;12.96;72.27;99521.61;4081448;86;21119;-85
2022/06/14 21:35:59;;;;;;;11.33;5.17;;;;;;;12.89;72.80;99530.56;4071947;86;21107;-85
2022/06/14 21:42:21;;;;;;;9.93;5.50;;;;;;;12.89;73.50;99538.04;4054149;86;21075;-85
2022/06/14 21:49:00;;;;;;;;;;;;;;;;;;;;;
2022/06/14 21:55:01;;;;;;;13.50;6.95;;;;;;;12.75;73.69;99538.66;4087749;85;20995;-85
2022/06/14 22:01:39;;;;;;;8.95;6.40;;;;;;;12.65;74.50;99543.47;4087236;86;21007;-84
2022/06/14 22:08:08;;;;;;;9.73;6.15;;;;;;;12.61;74.58;99538.50;4112048;85;21024;-84
2022/06/14 22:14:31;;;;;;;10.15;6.60;;;;;;;12.60;75.66;99551.47;4192991;85;20989;-84
2022/06/14 22:21:09;;;;;;;10.78;5.70;;;;;;;12.61;76.20;99551.66;4155980;84;21790;-84
2022/06/14 22:27:29;;;;;;;10.15;6.03;;;;;;;12.63;76.90;99554.83;4085643;85;20991;-84
2022/06/14 22:33:31;;;;;;;9.78;5.15;;;;;;;12.67;77.55;99556.83;4228023;83;21074;-84
2022/06/14 22:39:43;;;;;;;10.80;4.70;;;;;;;12.70;77.98;99562.34;4227426;83;21084;-84
2022/06/14 22:46:24;;;;;;;10.93;4.92;;;;;;;12.68;78.10;99557.02;4212343;83;21011;-84
2022/06/14 22:52:38;;;;;;;9.13;5.03;;;;;;;12.63;78.13;99566.39;4124823;85;21055;-84
2022/06/14 22:58:47;;;;;;;8.08;4.30;;;;;;;12.56;78.13;99565.72;4211031;83;22129;-85
2022/06/14 23:04:52;;;;;;;8.83;4.05;;;;;;;12.51;78.99;99566.05;4228811;83;21025;-84
2022/06/14 23:11:06;;;;;;;6.80;4.40;;;;;;;12.47;78.82;99569.34;4224662;82;21035;-84
2022/06/14 23:17:16;;;;;;;10.75;4.92;;;;;;;12.49;79.38;99562.91;4175908;83;20981;-85
2022/06/14 23:23:19;;;;;;;8.25;4.87;;;;;;;12.36;79.62;99560.17;4206224;83;21627;-84
2022/06/14 23:29:40;;;;;;;6.20;4.03;;;;;;;12.32;80.01;99566.79;4147805;84;22375;-84
2022/06/14 23:35:56;;;;;;;6.70;4.83;;;;;;;12.14;79.81;99568.48;4093866;86;21110;-85
2022/06/14 23:41:58;;;;;;;14.05;5.20;;;;;;;11.96;79.83;99567.45;4157702;84;21094;-84
2022/06/14 23:48:04;;;;;;;9.18;4.42;;;;;;;11.80;80.23;99570.36;4096994;86;21675;-84
2022/06/14 23:54:06;;;;;;;5.17;4.10;;;;;;;11.59;80.72;99576.07;4192464;83;22005;-84
